sensor_id;sensor_type;location;lat;lon;timestamp;P1;durP1;ratioP1;P2;durP2;ratioP2
73512;SDS011;61754;55.008;73.348;2022-09-09T00:04:23;9.85;;;2.85;;
73512;SDS011;61754;55.008;73.348;2022-09-09T00:09:21;8.07;;;3.00;;
73512;SDS011;61754;55.008;73.348;2022-09-09T00:11:53;9.10;;;2.80;;
73512;SDS011;61754;55.008;73.348;2022-09-09T00:20:12;6.72;;;2.40;;
73512;SDS011;61754;55.008;73.348;2022-09-09T00:22:40;4.78;;;2.22;;
73512;SDS011;61754;55.008;73.348;2022-09-09T00:25:11;5.70;;;2.75;;
73512;SDS011;61754;55.008;73.348;2022-09-09T00:30:18;7.53;;;2.70;;
73512;SDS011;61754;55.008;73.348;2022-09-09T00:32:58;11.05;;;3.00;;
73512;SDS011;61754;55.008;73.348;2022-09-09T00:37:54;8.60;;;3.35;;
73512;SDS011;61754;55.008;73.348;2022-09-09T00:40:32;9.07;;;2.35;;
73512;SDS011;61754;55.008;73.348;2022-09-09T00:48:08;5.97;;;3.00;;
73512;SDS011;61754;55.008;73.348;2022-09-09T00:50:44;6.90;;;2.95;;
73512;SDS011;61754;55.008;73.348;2022-09-09T00:55:45;8.77;;;3.60;;
73512;SDS011;61754;55.008;73.348;2022-09-09T00:58:13;13.80;;;3.70;;
73512;SDS011;61754;55.008;73.348;2022-09-09T01:00:41;9.13;;;4.25;;
73512;SDS011;61754;55.008;73.348;2022-09-09T01:10:59;14.15;;;3.80;;
73512;SDS011;61754;55.008;73.348;2022-09-09T01:13:29;12.75;;;4.53;;
73512;SDS011;61754;55.008;73.348;2022-09-09T01:15:58;5.80;;;3.45;;
73512;SDS011;61754;55.008;73.348;2022-09-09T01:18:36;6.95;;;3.75;;
73512;SDS011;61754;55.008;73.348;2022-09-09T01:24:04;22.85;;;3.92;;
73512;SDS011;61754;55.008;73.348;2022-09-09T01:27:06;13.15;;;3.67;;
73512;SDS011;61754;55.008;73.348;2022-09-09T01:29:33;11.20;;;3.88;;
73512;SDS011;61754;55.008;73.348;2022-09-09T01:32:01;19.13;;;5.05;;
73512;SDS011;61754;55.008;73.348;2022-09-09T01:34:30;20.35;;;5.03;;
73512;SDS011;61754;55.008;73.348;2022-09-09T01:37:02;13.00;;;4.30;;
73512;SDS011;61754;55.008;73.348;2022-09-09T01:39:31;8.82;;;3.72;;
73512;SDS011;61754;55.008;73.348;2022-09-09T01:42:13;10.90;;;3.65;;
73512;SDS011;61754;55.008;73.348;2022-09-09T01:44:44;8.80;;;3.53;;
73512;SDS011;61754;55.008;73.348;2022-09-09T01:47:20;12.45;;;3.75;;
73512;SDS011;61754;55.008;73.348;2022-09-09T01:50:01;16.45;;;3.75;;
73512;SDS011;61754;55.008;73.348;2022-09-09T01:52:29;9.20;;;4.85;;
73512;SDS011;61754;55.008;73.348;2022-09-09T01:54:57;13.95;;;3.83;;
73512;SDS011;61754;55.008;73.348;2022-09-09T01:57:31;16.17;;;3.95;;
73512;SDS011;61754;55.008;73.348;2022-09-09T02:00:06;12.50;;;4.28;;
73512;SDS011;61754;55.008;73.348;2022-09-09T02:07:49;17.00;;;4.00;;
73512;SDS011;61754;55.008;73.348;2022-09-09T02:10:50;13.23;;;4.00;;
73512;SDS011;61754;55.008;73.348;2022-09-09T02:13:30;8.63;;;3.03;;
73512;SDS011;61754;55.008;73.348;2022-09-09T02:16:08;10.80;;;3.63;;
73512;SDS011;61754;55.008;73.348;2022-09-09T02:21:18;9.32;;;3.25;;
73512;SDS011;61754;55.008;73.348;2022-09-09T02:23:47;8.45;;;3.45;;
73512;SDS011;61754;55.008;73.348;2022-09-09T02:26:28;18.73;;;4.32;;
73512;SDS011;61754;55.008;73.348;2022-09-09T02:29:03;11.65;;;4.35;;
73512;SDS011;61754;55.008;73.348;2022-09-09T02:31:31;10.95;;;3.83;;
73512;SDS011;61754;55.008;73.348;2022-09-09T02:34:10;12.80;;;3.63;;
73512;SDS011;61754;55.008;73.348;2022-09-09T02:36:37;18.60;;;3.97;;
73512;SDS011;61754;55.008;73.348;2022-09-09T02:39:06;16.98;;;3.67;;
73512;SDS011;61754;55.008;73.348;2022-09-09T02:41:36;11.50;;;3.65;;
73512;SDS011;61754;55.008;73.348;2022-09-09T02:44:05;15.68;;;3.70;;
73512;SDS011;61754;55.008;73.348;2022-09-09T02:54:31;15.70;;;3.13;;
73512;SDS011;61754;55.008;73.348;2022-09-09T02:57:22;10.25;;;3.38;;
73512;SDS011;61754;55.008;73.348;2022-09-09T02:59:59;10.15;;;2.92;;
73512;SDS011;61754;55.008;73.348;2022-09-09T03:02:26;11.85;;;2.30;;
73512;SDS011;61754;55.008;73.348;2022-09-09T03:04:57;9.17;;;2.63;;
73512;SDS011;61754;55.008;73.348;2022-09-09T03:07:23;15.73;;;2.97;;
73512;SDS011;61754;55.008;73.348;2022-09-09T03:09:51;5.10;;;2.05;;
73512;SDS011;61754;55.008;73.348;2022-09-09T03:12:19;10.75;;;2.63;;
73512;SDS011;61754;55.008;73.348;2022-09-09T03:14:46;7.80;;;2.78;;
73512;SDS011;61754;55.008;73.348;2022-09-09T03:17:12;6.85;;;2.72;;
73512;SDS011;61754;55.008;73.348;2022-09-09T03:19:46;20.02;;;2.70;;
73512;SDS011;61754;55.008;73.348;2022-09-09T03:22:12;15.57;;;3.30;;
73512;SDS011;61754;55.008;73.348;2022-09-09T03:24:41;9.40;;;2.50;;
73512;SDS011;61754;55.008;73.348;2022-09-09T03:27:12;10.23;;;2.67;;
73512;SDS011;61754;55.008;73.348;2022-09-09T03:29:41;11.80;;;3.13;;
73512;SDS011;61754;55.008;73.348;2022-09-09T03:32:12;9.00;;;2.45;;
73512;SDS011;61754;55.008;73.348;2022-09-09T03:34:38;8.73;;;2.22;;
73512;SDS011;61754;55.008;73.348;2022-09-09T03:37:08;18.42;;;2.67;;
73512;SDS011;61754;55.008;73.348;2022-09-09T03:39:35;10.48;;;2.13;;
73512;SDS011;61754;55.008;73.348;2022-09-09T03:42:06;10.88;;;2.42;;
73512;SDS011;61754;55.008;73.348;2022-09-09T03:44:42;8.75;;;2.40;;
73512;SDS011;61754;55.008;73.348;2022-09-09T03:47:19;7.85;;;2.22;;
73512;SDS011;61754;55.008;73.348;2022-09-09T03:49:58;10.40;;;2.88;;
73512;SDS011;61754;55.008;73.348;2022-09-09T03:52:37;17.80;;;3.50;;
73512;SDS011;61754;55.008;73.348;2022-09-09T03:55:07;14.20;;;2.90;;
73512;SDS011;61754;55.008;73.348;2022-09-09T03:57:33;13.50;;;2.90;;
73512;SDS011;61754;55.008;73.348;2022-09-09T04:00:05;14.10;;;2.97;;
73512;SDS011;61754;55.008;73.348;2022-09-09T04:02:41;8.25;;;2.58;;
73512;SDS011;61754;55.008;73.348;2022-09-09T04:05:22;14.25;;;2.75;;
73512;SDS011;61754;55.008;73.348;2022-09-09T04:07:48;10.10;;;2.22;;
73512;SDS011;61754;55.008;73.348;2022-09-09T04:10:14;7.65;;;2.10;;
73512;SDS011;61754;55.008;73.348;2022-09-09T04:12:42;11.70;;;1.88;;
73512;SDS011;61754;55.008;73.348;2022-09-09T04:15:08;6.78;;;1.90;;
73512;SDS011;61754;55.008;73.348;2022-09-09T04:17:41;9.98;;;1.73;;
73512;SDS011;61754;55.008;73.348;2022-09-09T04:20:08;2.15;;;1.33;;
73512;SDS011;61754;55.008;73.348;2022-09-09T04:22:41;6.95;;;1.70;;
73512;SDS011;61754;55.008;73.348;2022-09-09T04:25:12;10.10;;;1.80;;
73512;SDS011;61754;55.008;73.348;2022-09-09T04:27:52;5.30;;;1.35;;
73512;SDS011;61754;55.008;73.348;2022-09-09T04:30:19;8.98;;;1.70;;
73512;SDS011;61754;55.008;73.348;2022-09-09T04:32:45;3.72;;;1.08;;
73512;SDS011;61754;55.008;73.348;2022-09-09T04:35:11;3.15;;;1.02;;
73512;SDS011;61754;55.008;73.348;2022-09-09T04:37:49;6.05;;;1.05;;
73512;SDS011;61754;55.008;73.348;2022-09-09T04:40:16;4.03;;;1.20;;
73512;SDS011;61754;55.008;73.348;2022-09-09T04:42:42;4.35;;;0.82;;
73512;SDS011;61754;55.008;73.348;2022-09-09T04:45:11;1.65;;;1.00;;
73512;SDS011;61754;55.008;73.348;2022-09-09T04:47:51;6.35;;;0.80;;
73512;SDS011;61754;55.008;73.348;2022-09-09T04:50:23;2.47;;;1.10;;
73512;SDS011;61754;55.008;73.348;2022-09-09T04:52:59;2.58;;;0.77;;
73512;SDS011;61754;55.008;73.348;2022-09-09T04:55:27;3.35;;;1.00;;
73512;SDS011;61754;55.008;73.348;2022-09-09T04:57:53;4.88;;;1.08;;
73512;SDS011;61754;55.008;73.348;2022-09-09T05:00:19;7.47;;;0.90;;
73512;SDS011;61754;55.008;73.348;2022-09-09T05:05:22;2.63;;;0.70;;
73512;SDS011;61754;55.008;73.348;2022-09-09T05:07:49;2.35;;;0.88;;
73512;SDS011;61754;55.008;73.348;2022-09-09T05:10:25;1.70;;;0.57;;
73512;SDS011;61754;55.008;73.348;2022-09-09T05:12:56;6.68;;;1.10;;
73512;SDS011;61754;55.008;73.348;2022-09-09T05:15:25;3.53;;;0.85;;
73512;SDS011;61754;55.008;73.348;2022-09-09T05:17:51;11.20;;;0.95;;
73512;SDS011;61754;55.008;73.348;2022-09-09T05:20:24;2.35;;;0.80;;
73512;SDS011;61754;55.008;73.348;2022-09-09T05:22:52;2.70;;;0.90;;
73512;SDS011;61754;55.008;73.348;2022-09-09T05:25:19;4.00;;;1.40;;
73512;SDS011;61754;55.008;73.348;2022-09-09T05:27:51;6.03;;;0.93;;
73512;SDS011;61754;55.008;73.348;2022-09-09T05:30:20;3.83;;;0.90;;
73512;SDS011;61754;55.008;73.348;2022-09-09T05:32:51;1.70;;;1.08;;
73512;SDS011;61754;55.008;73.348;2022-09-09T05:35:26;2.35;;;0.98;;
73512;SDS011;61754;55.008;73.348;2022-09-09T05:38:02;2.70;;;1.05;;
73512;SDS011;61754;55.008;73.348;2022-09-09T05:40:28;5.70;;;0.90;;
73512;SDS011;61754;55.008;73.348;2022-09-09T05:42:59;2.58;;;1.02;;
73512;SDS011;61754;55.008;73.348;2022-09-09T05:45:25;3.67;;;1.05;;
73512;SDS011;61754;55.008;73.348;2022-09-09T05:47:51;4.20;;;0.80;;
73512;SDS011;61754;55.008;73.348;2022-09-09T05:50:19;1.15;;;0.90;;
73512;SDS011;61754;55.008;73.348;2022-09-09T05:52:55;2.40;;;0.88;;
73512;SDS011;61754;55.008;73.348;2022-09-09T05:55:25;3.55;;;1.10;;
73512;SDS011;61754;55.008;73.348;2022-09-09T05:58:01;14.02;;;1.33;;
73512;SDS011;61754;55.008;73.348;2022-09-09T06:00:28;5.53;;;1.30;;
73512;SDS011;61754;55.008;73.348;2022-09-09T06:03:09;11.63;;;1.42;;
73512;SDS011;61754;55.008;73.348;2022-09-09T06:05:35;5.38;;;1.15;;
73512;SDS011;61754;55.008;73.348;2022-09-09T06:08:01;9.80;;;1.08;;
73512;SDS011;61754;55.008;73.348;2022-09-09T06:10:27;3.22;;;1.02;;
73512;SDS011;61754;55.008;73.348;2022-09-09T06:12:53;1.50;;;0.88;;
73512;SDS011;61754;55.008;73.348;2022-09-09T06:15:28;4.05;;;1.52;;
73512;SDS011;61754;55.008;73.348;2022-09-09T06:18:01;3.25;;;1.15;;
73512;SDS011;61754;55.008;73.348;2022-09-09T06:20:27;4.97;;;1.15;;
73512;SDS011;61754;55.008;73.348;2022-09-09T06:22:57;5.78;;;1.10;;
73512;SDS011;61754;55.008;73.348;2022-09-09T06:25:32;6.00;;;1.60;;
73512;SDS011;61754;55.008;73.348;2022-09-09T06:28:10;8.88;;;1.30;;
73512;SDS011;61754;55.008;73.348;2022-09-09T06:30:36;3.63;;;1.30;;
73512;SDS011;61754;55.008;73.348;2022-09-09T06:33:06;11.23;;;1.40;;
73512;SDS011;61754;55.008;73.348;2022-09-09T06:35:36;10.23;;;1.33;;
73512;SDS011;61754;55.008;73.348;2022-09-09T06:38:11;3.97;;;1.25;;
73512;SDS011;61754;55.008;73.348;2022-09-09T06:40:37;8.43;;;1.73;;
73512;SDS011;61754;55.008;73.348;2022-09-09T06:43:09;6.63;;;1.20;;
73512;SDS011;61754;55.008;73.348;2022-09-09T06:45:52;7.57;;;1.52;;
73512;SDS011;61754;55.008;73.348;2022-09-09T06:48:29;2.92;;;1.13;;
73512;SDS011;61754;55.008;73.348;2022-09-09T06:53:31;3.13;;;0.80;;
73512;SDS011;61754;55.008;73.348;2022-09-09T06:58:42;4.63;;;1.20;;
73512;SDS011;61754;55.008;73.348;2022-09-09T07:01:19;4.97;;;1.10;;
73512;SDS011;61754;55.008;73.348;2022-09-09T07:03:56;4.80;;;0.70;;
73512;SDS011;61754;55.008;73.348;2022-09-09T07:06:26;1.20;;;1.10;;
73512;SDS011;61754;55.008;73.348;2022-09-09T07:08:58;6.60;;;1.20;;
73512;SDS011;61754;55.008;73.348;2022-09-09T07:11:37;4.13;;;1.20;;
73512;SDS011;61754;55.008;73.348;2022-09-09T07:14:03;6.78;;;1.25;;
73512;SDS011;61754;55.008;73.348;2022-09-09T07:16:30;7.05;;;1.15;;
73512;SDS011;61754;55.008;73.348;2022-09-09T07:19:10;6.97;;;0.95;;
73512;SDS011;61754;55.008;73.348;2022-09-09T07:21:37;1.05;;;0.70;;
73512;SDS011;61754;55.008;73.348;2022-09-09T07:24:11;3.15;;;0.90;;
73512;SDS011;61754;55.008;73.348;2022-09-09T07:26:40;7.25;;;1.08;;
73512;SDS011;61754;55.008;73.348;2022-09-09T07:29:16;3.33;;;0.60;;
73512;SDS011;61754;55.008;73.348;2022-09-09T07:31:46;5.22;;;1.27;;
73512;SDS011;61754;55.008;73.348;2022-09-09T07:34:18;4.35;;;1.00;;
73512;SDS011;61754;55.008;73.348;2022-09-09T07:36:44;11.23;;;1.65;;
73512;SDS011;61754;55.008;73.348;2022-09-09T07:39:22;21.98;;;1.92;;
73512;SDS011;61754;55.008;73.348;2022-09-09T07:41:51;38.80;;;2.78;;
73512;SDS011;61754;55.008;73.348;2022-09-09T07:44:22;10.10;;;1.33;;
73512;SDS011;61754;55.008;73.348;2022-09-09T07:47:09;13.93;;;1.52;;
73512;SDS011;61754;55.008;73.348;2022-09-09T07:49:39;6.25;;;1.70;;
73512;SDS011;61754;55.008;73.348;2022-09-09T07:52:13;10.48;;;1.45;;
73512;SDS011;61754;55.008;73.348;2022-09-09T07:54:42;8.02;;;1.63;;
73512;SDS011;61754;55.008;73.348;2022-09-09T07:57:10;3.30;;;1.08;;
73512;SDS011;61754;55.008;73.348;2022-09-09T07:59:37;4.55;;;0.98;;
73512;SDS011;61754;55.008;73.348;2022-09-09T08:02:10;4.28;;;0.93;;
73512;SDS011;61754;55.008;73.348;2022-09-09T08:04:36;6.68;;;0.75;;
73512;SDS011;61754;55.008;73.348;2022-09-09T08:07:03;0.88;;;0.80;;
73512;SDS011;61754;55.008;73.348;2022-09-09T08:09:33;2.53;;;0.80;;
73512;SDS011;61754;55.008;73.348;2022-09-09T08:12:20;8.02;;;1.23;;
73512;SDS011;61754;55.008;73.348;2022-09-09T08:14:46;4.65;;;1.02;;
73512;SDS011;61754;55.008;73.348;2022-09-09T08:17:12;2.72;;;1.10;;
73512;SDS011;61754;55.008;73.348;2022-09-09T08:19:38;5.70;;;1.13;;
73512;SDS011;61754;55.008;73.348;2022-09-09T08:22:14;7.65;;;1.42;;
73512;SDS011;61754;55.008;73.348;2022-09-09T08:24:51;3.45;;;0.98;;
73512;SDS011;61754;55.008;73.348;2022-09-09T08:27:18;6.28;;;0.93;;
73512;SDS011;61754;55.008;73.348;2022-09-09T08:29:44;5.85;;;0.95;;
73512;SDS011;61754;55.008;73.348;2022-09-09T08:32:10;6.68;;;1.50;;
73512;SDS011;61754;55.008;73.348;2022-09-09T08:34:42;3.07;;;1.20;;
73512;SDS011;61754;55.008;73.348;2022-09-09T08:37:14;6.13;;;0.90;;
73512;SDS011;61754;55.008;73.348;2022-09-09T08:39:41;8.10;;;1.10;;
73512;SDS011;61754;55.008;73.348;2022-09-09T08:45:12;2.70;;;1.15;;
73512;SDS011;61754;55.008;73.348;2022-09-09T08:57:55;6.55;;;1.20;;
73512;SDS011;61754;55.008;73.348;2022-09-09T09:00:30;5.50;;;1.20;;
73512;SDS011;61754;55.008;73.348;2022-09-09T09:05:32;9.55;;;1.13;;
73512;SDS011;61754;55.008;73.348;2022-09-09T09:10:40;8.35;;;1.63;;
73512;SDS011;61754;55.008;73.348;2022-09-09T09:13:15;3.05;;;1.27;;
73512;SDS011;61754;55.008;73.348;2022-09-09T09:15:44;5.32;;;3.25;;
73512;SDS011;61754;55.008;73.348;2022-09-09T09:18:12;7.65;;;1.50;;
73512;SDS011;61754;55.008;73.348;2022-09-09T09:21:01;11.63;;;1.38;;
73512;SDS011;61754;55.008;73.348;2022-09-09T09:23:32;8.88;;;1.55;;
73512;SDS011;61754;55.008;73.348;2022-09-09T09:26:01;5.03;;;1.30;;
73512;SDS011;61754;55.008;73.348;2022-09-09T09:28:29;8.38;;;1.85;;
73512;SDS011;61754;55.008;73.348;2022-09-09T09:31:05;7.80;;;2.13;;
73512;SDS011;61754;55.008;73.348;2022-09-09T09:33:36;5.35;;;1.33;;
73512;SDS011;61754;55.008;73.348;2022-09-09T09:36:07;6.53;;;1.77;;
73512;SDS011;61754;55.008;73.348;2022-09-09T09:38:36;1.30;;;1.20;;
73512;SDS011;61754;55.008;73.348;2022-09-09T09:41:03;7.57;;;2.05;;
73512;SDS011;61754;55.008;73.348;2022-09-09T09:43:34;2.97;;;1.48;;
73512;SDS011;61754;55.008;73.348;2022-09-09T09:46:04;7.70;;;2.10;;
73512;SDS011;61754;55.008;73.348;2022-09-09T09:48:31;2.35;;;1.75;;
73512;SDS011;61754;55.008;73.348;2022-09-09T09:51:04;6.00;;;1.92;;
73512;SDS011;61754;55.008;73.348;2022-09-09T09:53:34;4.07;;;2.38;;
73512;SDS011;61754;55.008;73.348;2022-09-09T09:56:01;2.15;;;1.50;;
73512;SDS011;61754;55.008;73.348;2022-09-09T09:58:47;6.07;;;1.52;;
73512;SDS011;61754;55.008;73.348;2022-09-09T10:01:24;2.40;;;1.50;;
73512;SDS011;61754;55.008;73.348;2022-09-09T10:03:51;3.88;;;1.67;;
73512;SDS011;61754;55.008;73.348;2022-09-09T10:06:29;1.42;;;1.33;;
73512;SDS011;61754;55.008;73.348;2022-09-09T10:09:01;4.25;;;1.60;;
73512;SDS011;61754;55.008;73.348;2022-09-09T10:14:23;4.15;;;1.80;;
73512;SDS011;61754;55.008;73.348;2022-09-09T10:19:29;10.65;;;1.92;;
73512;SDS011;61754;55.008;73.348;2022-09-09T10:27:32;9.30;;;1.90;;
73512;SDS011;61754;55.008;73.348;2022-09-09T10:32:33;17.58;;;2.67;;
73512;SDS011;61754;55.008;73.348;2022-09-09T10:35:46;12.95;;;2.42;;
73512;SDS011;61754;55.008;73.348;2022-09-09T10:40:38;3.58;;;2.20;;
73512;SDS011;61754;55.008;73.348;2022-09-09T10:46:26;15.02;;;4.00;;
73512;SDS011;61754;55.008;73.348;2022-09-09T10:51:23;13.82;;;3.08;;
73512;SDS011;61754;55.008;73.348;2022-09-09T10:56:36;10.88;;;2.40;;
73512;SDS011;61754;55.008;73.348;2022-09-09T11:01:44;7.05;;;2.05;;
73512;SDS011;61754;55.008;73.348;2022-09-09T11:04:32;14.25;;;2.67;;
73512;SDS011;61754;55.008;73.348;2022-09-09T11:07:00;8.00;;;1.85;;
73512;SDS011;61754;55.008;73.348;2022-09-09T11:09:31;7.00;;;1.70;;
73512;SDS011;61754;55.008;73.348;2022-09-09T11:12:09;12.98;;;2.55;;
73512;SDS011;61754;55.008;73.348;2022-09-09T11:15:13;6.55;;;1.75;;
73512;SDS011;61754;55.008;73.348;2022-09-09T11:17:36;13.75;;;2.05;;
73512;SDS011;61754;55.008;73.348;2022-09-09T11:20:05;9.65;;;1.90;;
73512;SDS011;61754;55.008;73.348;2022-09-09T11:22:33;7.22;;;2.03;;
73512;SDS011;61754;55.008;73.348;2022-09-09T11:40:40;9.90;;;2.42;;
73512;SDS011;61754;55.008;73.348;2022-09-09T11:45:55;10.55;;;2.03;;
73512;SDS011;61754;55.008;73.348;2022-09-09T11:48:40;7.57;;;1.80;;
73512;SDS011;61754;55.008;73.348;2022-09-09T11:53:56;6.38;;;1.85;;
73512;SDS011;61754;55.008;73.348;2022-09-09T11:58:58;9.27;;;2.78;;
73512;SDS011;61754;55.008;73.348;2022-09-09T12:02:14;13.43;;;2.50;;
73512;SDS011;61754;55.008;73.348;2022-09-09T12:04:33;20.52;;;2.83;;
73512;SDS011;61754;55.008;73.348;2022-09-09T12:09:43;6.78;;;1.65;;
73512;SDS011;61754;55.008;73.348;2022-09-09T12:12:38;6.60;;;1.67;;
73512;SDS011;61754;55.008;73.348;2022-09-09T12:17:42;12.45;;;2.15;;
73512;SDS011;61754;55.008;73.348;2022-09-09T12:20:13;7.65;;;1.83;;
73512;SDS011;61754;55.008;73.348;2022-09-09T12:30:23;2.05;;;1.50;;
73512;SDS011;61754;55.008;73.348;2022-09-09T12:35:57;6.30;;;2.45;;
73512;SDS011;61754;55.008;73.348;2022-09-09T12:38:35;5.38;;;1.88;;
73512;SDS011;61754;55.008;73.348;2022-09-09T12:41:15;8.63;;;2.38;;
73512;SDS011;61754;55.008;73.348;2022-09-09T12:43:45;7.88;;;2.33;;
73512;SDS011;61754;55.008;73.348;2022-09-09T12:46:14;10.15;;;3.50;;
73512;SDS011;61754;55.008;73.348;2022-09-09T12:48:42;10.03;;;6.00;;
73512;SDS011;61754;55.008;73.348;2022-09-09T12:51:30;20.30;;;7.78;;
73512;SDS011;61754;55.008;73.348;2022-09-09T12:53:56;15.18;;;7.80;;
73512;SDS011;61754;55.008;73.348;2022-09-09T12:56:23;18.42;;;8.80;;
73512;SDS011;61754;55.008;73.348;2022-09-09T12:58:52;19.15;;;8.88;;
73512;SDS011;61754;55.008;73.348;2022-09-09T13:01:31;21.45;;;8.00;;
73512;SDS011;61754;55.008;73.348;2022-09-09T13:03:59;25.13;;;8.50;;
73512;SDS011;61754;55.008;73.348;2022-09-09T13:06:35;19.30;;;8.18;;
73512;SDS011;61754;55.008;73.348;2022-09-09T13:09:01;18.38;;;8.05;;
73512;SDS011;61754;55.008;73.348;2022-09-09T13:13:57;18.08;;;7.05;;
73512;SDS011;61754;55.008;73.348;2022-09-09T13:19:00;13.60;;;6.35;;
73512;SDS011;61754;55.008;73.348;2022-09-09T13:21:37;13.40;;;6.47;;
73512;SDS011;61754;55.008;73.348;2022-09-09T13:27:26;19.50;;;5.63;;
73512;SDS011;61754;55.008;73.348;2022-09-09T13:30:26;14.63;;;5.53;;
73512;SDS011;61754;55.008;73.348;2022-09-09T13:33:00;17.25;;;4.20;;
73512;SDS011;61754;55.008;73.348;2022-09-09T13:35:31;12.00;;;4.35;;
73512;SDS011;61754;55.008;73.348;2022-09-09T13:38:08;21.33;;;5.28;;
73512;SDS011;61754;55.008;73.348;2022-09-09T13:40:37;10.90;;;5.13;;
73512;SDS011;61754;55.008;73.348;2022-09-09T13:43:03;11.52;;;5.07;;
73512;SDS011;61754;55.008;73.348;2022-09-09T13:45:35;25.00;;;4.43;;
73512;SDS011;61754;55.008;73.348;2022-09-09T13:48:08;23.27;;;4.43;;
73512;SDS011;61754;55.008;73.348;2022-09-09T13:50:34;16.10;;;3.95;;
73512;SDS011;61754;55.008;73.348;2022-09-09T13:53:06;18.17;;;4.43;;
73512;SDS011;61754;55.008;73.348;2022-09-09T13:55:35;14.40;;;4.50;;
73512;SDS011;61754;55.008;73.348;2022-09-09T13:58:14;11.73;;;4.70;;
73512;SDS011;61754;55.008;73.348;2022-09-09T14:00:41;19.58;;;4.95;;
73512;SDS011;61754;55.008;73.348;2022-09-09T14:03:12;18.45;;;4.53;;
73512;SDS011;61754;55.008;73.348;2022-09-09T14:05:44;12.30;;;5.38;;
73512;SDS011;61754;55.008;73.348;2022-09-09T14:08:21;17.05;;;4.50;;
73512;SDS011;61754;55.008;73.348;2022-09-09T14:10:57;11.20;;;4.53;;
73512;SDS011;61754;55.008;73.348;2022-09-09T14:13:25;12.40;;;4.40;;
73512;SDS011;61754;55.008;73.348;2022-09-09T14:16:01;16.98;;;5.40;;
73512;SDS011;61754;55.008;73.348;2022-09-09T14:18:27;15.68;;;4.63;;
73512;SDS011;61754;55.008;73.348;2022-09-09T14:20:53;11.73;;;4.55;;
73512;SDS011;61754;55.008;73.348;2022-09-09T14:23:19;13.48;;;5.35;;
73512;SDS011;61754;55.008;73.348;2022-09-09T14:25:47;16.73;;;5.38;;
73512;SDS011;61754;55.008;73.348;2022-09-09T14:28:19;15.55;;;4.43;;
73512;SDS011;61754;55.008;73.348;2022-09-09T14:30:50;14.95;;;3.90;;
73512;SDS011;61754;55.008;73.348;2022-09-09T14:33:16;19.48;;;5.00;;
73512;SDS011;61754;55.008;73.348;2022-09-09T14:35:47;18.70;;;4.75;;
73512;SDS011;61754;55.008;73.348;2022-09-09T14:38:14;9.23;;;4.25;;
73512;SDS011;61754;55.008;73.348;2022-09-09T14:40:40;19.10;;;4.88;;
73512;SDS011;61754;55.008;73.348;2022-09-09T14:43:11;19.88;;;5.70;;
73512;SDS011;61754;55.008;73.348;2022-09-09T14:45:37;27.60;;;6.38;;
73512;SDS011;61754;55.008;73.348;2022-09-09T14:48:03;14.93;;;4.72;;
73512;SDS011;61754;55.008;73.348;2022-09-09T14:50:30;27.40;;;4.60;;
73512;SDS011;61754;55.008;73.348;2022-09-09T14:53:06;13.50;;;4.88;;
73512;SDS011;61754;55.008;73.348;2022-09-09T14:55:42;14.82;;;4.45;;
73512;SDS011;61754;55.008;73.348;2022-09-09T14:58:08;12.68;;;4.03;;
73512;SDS011;61754;55.008;73.348;2022-09-09T15:00:34;26.45;;;5.45;;
73512;SDS011;61754;55.008;73.348;2022-09-09T15:03:00;21.15;;;4.78;;
73512;SDS011;61754;55.008;73.348;2022-09-09T15:05:30;22.45;;;5.22;;
73512;SDS011;61754;55.008;73.348;2022-09-09T15:07:57;21.10;;;6.03;;
73512;SDS011;61754;55.008;73.348;2022-09-09T15:10:24;37.65;;;8.15;;
73512;SDS011;61754;55.008;73.348;2022-09-09T15:12:55;30.88;;;5.57;;
73512;SDS011;61754;55.008;73.348;2022-09-09T15:15:32;26.73;;;5.00;;
73512;SDS011;61754;55.008;73.348;2022-09-09T15:18:10;21.10;;;5.22;;
73512;SDS011;61754;55.008;73.348;2022-09-09T15:20:36;12.20;;;4.25;;
73512;SDS011;61754;55.008;73.348;2022-09-09T15:23:03;19.95;;;5.18;;
73512;SDS011;61754;55.008;73.348;2022-09-09T15:25:29;21.98;;;5.30;;
73512;SDS011;61754;55.008;73.348;2022-09-09T15:27:55;22.92;;;4.50;;
73512;SDS011;61754;55.008;73.348;2022-09-09T15:30:22;16.88;;;5.95;;
73512;SDS011;61754;55.008;73.348;2022-09-09T15:32:47;22.30;;;5.15;;
73512;SDS011;61754;55.008;73.348;2022-09-09T15:35:13;22.75;;;5.45;;
73512;SDS011;61754;55.008;73.348;2022-09-09T15:37:40;15.30;;;5.35;;
73512;SDS011;61754;55.008;73.348;2022-09-09T15:40:06;28.55;;;5.25;;
73512;SDS011;61754;55.008;73.348;2022-09-09T15:42:33;14.90;;;5.43;;
73512;SDS011;61754;55.008;73.348;2022-09-09T15:45:00;19.25;;;5.65;;
73512;SDS011;61754;55.008;73.348;2022-09-09T15:47:33;20.42;;;6.03;;
73512;SDS011;61754;55.008;73.348;2022-09-09T15:49:59;18.05;;;6.15;;
73512;SDS011;61754;55.008;73.348;2022-09-09T15:52:25;23.55;;;5.68;;
73512;SDS011;61754;55.008;73.348;2022-09-09T15:54:55;17.60;;;6.63;;
73512;SDS011;61754;55.008;73.348;2022-09-09T15:57:21;22.52;;;5.55;;
73512;SDS011;61754;55.008;73.348;2022-09-09T15:59:47;19.65;;;6.20;;
73512;SDS011;61754;55.008;73.348;2022-09-09T16:02:13;29.95;;;6.75;;
73512;SDS011;61754;55.008;73.348;2022-09-09T16:04:39;25.42;;;7.60;;
73512;SDS011;61754;55.008;73.348;2022-09-09T16:07:12;16.83;;;6.80;;
73512;SDS011;61754;55.008;73.348;2022-09-09T16:09:39;27.10;;;7.55;;
73512;SDS011;61754;55.008;73.348;2022-09-09T16:12:08;26.30;;;8.63;;
73512;SDS011;61754;55.008;73.348;2022-09-09T16:14:48;25.67;;;9.52;;
73512;SDS011;61754;55.008;73.348;2022-09-09T16:17:14;29.27;;;10.27;;
73512;SDS011;61754;55.008;73.348;2022-09-09T16:19:40;38.38;;;9.90;;
73512;SDS011;61754;55.008;73.348;2022-09-09T16:22:06;31.80;;;10.07;;
73512;SDS011;61754;55.008;73.348;2022-09-09T16:24:43;23.95;;;9.35;;
73512;SDS011;61754;55.008;73.348;2022-09-09T16:27:10;28.75;;;10.10;;
73512;SDS011;61754;55.008;73.348;2022-09-09T16:29:37;27.63;;;12.02;;
73512;SDS011;61754;55.008;73.348;2022-09-09T16:32:03;59.63;;;26.13;;
73512;SDS011;61754;55.008;73.348;2022-09-09T16:34:29;66.38;;;30.27;;
73512;SDS011;61754;55.008;73.348;2022-09-09T16:37:05;61.72;;;34.13;;
73512;SDS011;61754;55.008;73.348;2022-09-09T16:39:31;73.38;;;34.65;;
73512;SDS011;61754;55.008;73.348;2022-09-09T16:42:02;62.72;;;32.70;;
73512;SDS011;61754;55.008;73.348;2022-09-09T16:44:40;72.00;;;36.10;;
73512;SDS011;61754;55.008;73.348;2022-09-09T16:47:06;75.15;;;34.78;;
73512;SDS011;61754;55.008;73.348;2022-09-09T16:49:33;67.47;;;36.40;;
73512;SDS011;61754;55.008;73.348;2022-09-09T16:52:04;67.85;;;31.30;;
73512;SDS011;61754;55.008;73.348;2022-09-09T16:54:30;66.80;;;32.88;;
73512;SDS011;61754;55.008;73.348;2022-09-09T16:56:56;62.00;;;32.17;;
73512;SDS011;61754;55.008;73.348;2022-09-09T16:59:23;62.85;;;31.77;;
73512;SDS011;61754;55.008;73.348;2022-09-09T17:01:50;58.35;;;33.63;;
73512;SDS011;61754;55.008;73.348;2022-09-09T17:04:21;57.88;;;32.92;;
73512;SDS011;61754;55.008;73.348;2022-09-09T17:06:55;63.60;;;33.75;;
73512;SDS011;61754;55.008;73.348;2022-09-09T17:09:22;78.28;;;33.50;;
73512;SDS011;61754;55.008;73.348;2022-09-09T17:11:49;66.55;;;38.90;;
73512;SDS011;61754;55.008;73.348;2022-09-09T17:14:18;63.25;;;35.55;;
73512;SDS011;61754;55.008;73.348;2022-09-09T17:16:44;81.82;;;37.20;;
73512;SDS011;61754;55.008;73.348;2022-09-09T17:19:15;95.97;;;51.22;;
73512;SDS011;61754;55.008;73.348;2022-09-09T17:21:46;80.57;;;46.13;;